etsfs.com

SPEED LOG BR GSoares

SPEED LOG BR

Online ETSFS
  • Iniciou dia:: 2019-11-28 as :20:48:41
  • Finalizou dia: as:21:17:16
  • Saiu de:Bordeaux Empresa: Bâtisse
  • Para: Le Mans Empresa: Wilnet Transport
  • Carga:Carregadeiras Pesando: 23 t. Frete :29431
  • Código Viagem:1805096
  • Fabricante:Mercedes-Benz Modelo:Actros
  • Combustivel Inicio/Fim: 430 L / 215 L / Consumo: 215 L - Media 2.75 KM/L
  • Odometro Inicio/Fim: 280671 / 281263
  • Distancia Estimada 591 Km Distancia Balsa: 0
  • km Rodado: 592 Km - Ponto$ : $29.6
  • Tempo Total da Viagem 28.00 Min. / Média de KM/Min : 21.14
Histórico Viagem
Data H.Jogo Vel. Odômetro RPM Marcha Diesel Engine Cabine Pneus Chassis Trailer
28/11/2019-20:48:38 00:37 0 280671 550.7938 -1 430 0 0 0 0 0 0
28/11/2019-20:53:00 01:03 86 280701 1204.077 12 413 0 0 0 0 0 0
28/11/2019-20:54:04 01:09 86 280731 1202.511 12 404 0 0 0 0 0 0
28/11/2019-20:54:27 01:11 88 280742 1218.619 12 400 0 0 0 0 0 1
28/11/2019-20:54:27 01:11 87 280742 1217.577 12 400 0 0 0 0 0 1
28/11/2019-20:55:21 01:17 84 280761 1182.208 12 390 0 0 0 0 0 1
28/11/2019-20:56:24 01:23 87 280791 1222.147 12 380 0 0 0 0 0 1
28/11/2019-20:57:27 01:29 85 280821 1189.707 12 375 0 0 0 0 0 1
28/11/2019-20:58:34 01:36 88 280851 1234.881 12 364 0 0 0 0 0 1
28/11/2019-20:59:37 01:43 89 280881 1252.897 12 353 0 0 0 0 0 1
28/11/2019-21:00:41 01:49 89 280911 1254.231 12 343 0 0 0 0 0 1
28/11/2019-21:01:45 01:55 89 280941 1254.058 12 330 0 0 0 0 0 1
28/11/2019-21:02:50 02:02 89 280971 1253.8 12 319 0 0 0 0 0 1
28/11/2019-21:03:54 02:08 87 281001 1216.96 12 309 0 0 0 0 0 1
28/11/2019-21:04:57 02:15 89 281031 1253.448 12 299 0 0 0 0 0 1
28/11/2019-21:06:01 02:21 89 281061 1254.271 12 289 0 0 0 0 0 1
28/11/2019-21:06:37 02:24 26 281076 688.2783 10 286 6 3 9 2 12 3
28/11/2019-21:06:37 02:24 26 281076 688.2783 10 286 6 3 9 2 12 3
28/11/2019-21:06:37 02:24 26 281076 688.2783 10 286 6 3 9 2 12 3
28/11/2019-21:06:37 02:24 26 281076 688.2783 10 286 6 3 9 2 12 3
28/11/2019-21:06:37 02:24 26 281076 688.2783 10 286 6 3 9 2 12 3
28/11/2019-21:06:37 02:24 26 281076 688.2783 10 286 6 3 9 2 12 3
28/11/2019-21:06:38 02:25 23 281077 535.7155 10 286 6 3 10 2 12 3
28/11/2019-21:07:29 02:30 92 281091 1273.405 12 273 6 3 10 2 12 3
28/11/2019-21:08:33 02:36 90 281121 1255.849 12 263 6 3 10 2 12 3
28/11/2019-21:09:36 02:42 89 281151 1247.361 12 254 6 3 10 2 12 3
28/11/2019-21:10:40 02:49 89 281181 1251.476 12 246 6 3 10 2 12 3
28/11/2019-21:11:45 02:55 89 281211 1253.793 12 233 6 3 10 3 12 3
28/11/2019-21:12:50 03:02 75 281241 1662.563 10 226 6 3 10 3 12 3
28/11/2019-21:15:40 03:19 0 281263 470.4263 0 215 6 3 10 3 12 3
28/11/2019-21:17:17 03:28 0 281263 0 0 215 6 3 10 3 12 0
Multas
Data Jogo Hora Jogo Data Hora Limite Tolerância Vel. Multa
Não existe Multa

Sobre nós

Pensando na facilidade e comodidade de criar sua empresa virtual e armazenar seus registros, o etsfs passou a oferecer um aplicativo que ao executá-lo juntamente com um simulador descrito no menu,você poderá registrar suas viagens automaticamente em nosso site sem nenhum problema,FAÇA SEU REGISTRO!

Redes Sociais
Doações

Contatos